sensor_id;sensor_type;location;lat;lon;timestamp;temperature;humidity
18047;DHT22;9148;51.454;13.862;2023-04-15T00:01:25;8.20;99.90
18047;DHT22;9148;51.454;13.862;2023-04-15T00:03:52;8.20;99.90
18047;DHT22;9148;51.454;13.862;2023-04-15T00:06:19;8.40;99.90
18047;DHT22;9148;51.454;13.862;2023-04-15T00:08:46;8.20;99.90
18047;DHT22;9148;51.454;13.862;2023-04-15T00:11:12;8.20;99.90
18047;DHT22;9148;51.454;13.862;2023-04-15T00:13:38;8.20;99.90
18047;DHT22;9148;51.454;13.862;2023-04-15T00:16:05;8.20;99.90
18047;DHT22;9148;51.454;13.862;2023-04-15T00:18:32;8.20;99.90
18047;DHT22;9148;51.454;13.862;2023-04-15T00:20:58;8.20;99.90
18047;DHT22;9148;51.454;13.862;2023-04-15T00:23:24;8.20;99.90
18047;DHT22;9148;51.454;13.862;2023-04-15T00:25:51;8.20;99.90
18047;DHT22;9148;51.454;13.862;2023-04-15T00:28:16;8.20;99.90
18047;DHT22;9148;51.454;13.862;2023-04-15T00:30:43;8.30;99.90
18047;DHT22;9148;51.454;13.862;2023-04-15T00:33:09;8.30;99.90
18047;DHT22;9148;51.454;13.862;2023-04-15T00:35:35;8.30;99.90
18047;DHT22;9148;51.454;13.862;2023-04-15T00:38:02;8.30;99.90
18047;DHT22;9148;51.454;13.862;2023-04-15T00:40:31;8.30;99.90
18047;DHT22;9148;51.454;13.862;2023-04-15T00:42:57;8.30;99.90
18047;DHT22;9148;51.454;13.862;2023-04-15T00:45:29;8.30;99.90
18047;DHT22;9148;51.454;13.862;2023-04-15T00:47:55;8.30;99.90
18047;DHT22;9148;51.454;13.862;2023-04-15T00:50:21;8.30;99.90
18047;DHT22;9148;51.454;13.862;2023-04-15T00:52:47;8.30;99.90
18047;DHT22;9148;51.454;13.862;2023-04-15T00:55:13;8.30;99.90
18047;DHT22;9148;51.454;13.862;2023-04-15T00:57:39;8.30;99.90
18047;DHT22;9148;51.454;13.862;2023-04-15T01:00:06;8.30;99.90
18047;DHT22;9148;51.454;13.862;2023-04-15T01:02:33;8.30;99.90
18047;DHT22;9148;51.454;13.862;2023-04-15T01:05:00;8.30;99.90
18047;DHT22;9148;51.454;13.862;2023-04-15T01:07:26;8.30;99.90
18047;DHT22;9148;51.454;13.862;2023-04-15T01:09:52;8.30;99.90
18047;DHT22;9148;51.454;13.862;2023-04-15T01:12:18;8.30;99.90
18047;DHT22;9148;51.454;13.862;2023-04-15T01:14:44;8.40;99.90
18047;DHT22;9148;51.454;13.862;2023-04-15T01:17:10;8.40;99.90
18047;DHT22;9148;51.454;13.862;2023-04-15T01:19:37;8.40;99.90
18047;DHT22;9148;51.454;13.862;2023-04-15T01:22:03;8.30;99.90
18047;DHT22;9148;51.454;13.862;2023-04-15T01:24:31;8.40;99.90
18047;DHT22;9148;51.454;13.862;2023-04-15T01:26:58;8.40;99.90
18047;DHT22;9148;51.454;13.862;2023-04-15T01:29:24;8.40;99.90
18047;DHT22;9148;51.454;13.862;2023-04-15T01:31:54;8.40;99.90
18047;DHT22;9148;51.454;13.862;2023-04-15T01:34:20;8.40;99.90
18047;DHT22;9148;51.454;13.862;2023-04-15T01:36:47;8.40;99.90
18047;DHT22;9148;51.454;13.862;2023-04-15T01:39:13;8.40;99.90
18047;DHT22;9148;51.454;13.862;2023-04-15T01:41:39;8.30;99.90
18047;DHT22;9148;51.454;13.862;2023-04-15T01:44:06;8.40;99.90
18047;DHT22;9148;51.454;13.862;2023-04-15T01:46:32;8.40;99.90
18047;DHT22;9148;51.454;13.862;2023-04-15T01:48:58;8.80;99.90
18047;DHT22;9148;51.454;13.862;2023-04-15T01:51:23;8.30;99.90
18047;DHT22;9148;51.454;13.862;2023-04-15T01:53:49;8.30;99.90
18047;DHT22;9148;51.454;13.862;2023-04-15T01:56:15;8.40;99.90
18047;DHT22;9148;51.454;13.862;2023-04-15T01:58:41;8.30;99.90
18047;DHT22;9148;51.454;13.862;2023-04-15T02:01:06;8.30;99.90
18047;DHT22;9148;51.454;13.862;2023-04-15T02:03:34;8.30;99.90
18047;DHT22;9148;51.454;13.862;2023-04-15T02:06:00;8.40;99.90
18047;DHT22;9148;51.454;13.862;2023-04-15T02:08:25;8.40;99.90
18047;DHT22;9148;51.454;13.862;2023-04-15T02:10:51;8.30;99.90
18047;DHT22;9148;51.454;13.862;2023-04-15T02:13:17;8.40;99.90
18047;DHT22;9148;51.454;13.862;2023-04-15T02:15:47;8.50;99.90
18047;DHT22;9148;51.454;13.862;2023-04-15T02:18:14;8.40;99.90
18047;DHT22;9148;51.454;13.862;2023-04-15T02:20:41;8.40;99.90
18047;DHT22;9148;51.454;13.862;2023-04-15T02:23:08;8.40;99.90
18047;DHT22;9148;51.454;13.862;2023-04-15T02:25:37;8.40;99.90
18047;DHT22;9148;51.454;13.862;2023-04-15T02:28:06;8.40;99.90
18047;DHT22;9148;51.454;13.862;2023-04-15T02:30:32;8.50;99.90
18047;DHT22;9148;51.454;13.862;2023-04-15T02:32:58;8.50;99.90
18047;DHT22;9148;51.454;13.862;2023-04-15T02:35:25;8.50;99.90
18047;DHT22;9148;51.454;13.862;2023-04-15T02:37:51;8.50;99.90
18047;DHT22;9148;51.454;13.862;2023-04-15T02:40:17;8.60;99.90
18047;DHT22;9148;51.454;13.862;2023-04-15T02:42:43;8.60;99.90
18047;DHT22;9148;51.454;13.862;2023-04-15T02:45:09;8.60;99.90
18047;DHT22;9148;51.454;13.862;2023-04-15T02:47:37;8.60;99.90
18047;DHT22;9148;51.454;13.862;2023-04-15T02:50:09;8.70;99.90
18047;DHT22;9148;51.454;13.862;2023-04-15T02:52:40;8.60;99.90
18047;DHT22;9148;51.454;13.862;2023-04-15T02:55:06;8.60;99.90
18047;DHT22;9148;51.454;13.862;2023-04-15T02:57:32;8.70;99.90
18047;DHT22;9148;51.454;13.862;2023-04-15T02:59:59;8.70;99.90
18047;DHT22;9148;51.454;13.862;2023-04-15T03:02:25;8.70;99.90
18047;DHT22;9148;51.454;13.862;2023-04-15T03:04:51;8.70;99.90
18047;DHT22;9148;51.454;13.862;2023-04-15T03:07:17;8.40;99.90
18047;DHT22;9148;51.454;13.862;2023-04-15T03:09:43;8.70;99.90
18047;DHT22;9148;51.454;13.862;2023-04-15T03:12:09;8.70;99.90
18047;DHT22;9148;51.454;13.862;2023-04-15T03:14:35;8.70;99.90
18047;DHT22;9148;51.454;13.862;2023-04-15T03:17:00;8.70;99.90
18047;DHT22;9148;51.454;13.862;2023-04-15T03:19:26;8.80;99.90
18047;DHT22;9148;51.454;13.862;2023-04-15T03:21:52;8.70;99.90
18047;DHT22;9148;51.454;13.862;2023-04-15T03:24:17;8.80;99.90
18047;DHT22;9148;51.454;13.862;2023-04-15T03:26:43;8.80;99.90
18047;DHT22;9148;51.454;13.862;2023-04-15T03:29:09;8.80;99.90
18047;DHT22;9148;51.454;13.862;2023-04-15T03:31:35;8.90;99.90
18047;DHT22;9148;51.454;13.862;2023-04-15T03:34:00;8.80;99.90
18047;DHT22;9148;51.454;13.862;2023-04-15T03:36:28;8.80;99.90
18047;DHT22;9148;51.454;13.862;2023-04-15T03:38:54;8.80;99.90
18047;DHT22;9148;51.454;13.862;2023-04-15T03:41:21;8.90;99.90
18047;DHT22;9148;51.454;13.862;2023-04-15T03:43:46;8.90;99.90
18047;DHT22;9148;51.454;13.862;2023-04-15T03:46:12;8.90;99.90
18047;DHT22;9148;51.454;13.862;2023-04-15T03:48:38;8.90;99.90
18047;DHT22;9148;51.454;13.862;2023-04-15T03:51:03;8.90;99.90
18047;DHT22;9148;51.454;13.862;2023-04-15T03:53:29;8.90;99.90
18047;DHT22;9148;51.454;13.862;2023-04-15T03:55:55;8.90;99.90
18047;DHT22;9148;51.454;13.862;2023-04-15T03:58:21;8.90;99.90
18047;DHT22;9148;51.454;13.862;2023-04-15T04:00:46;9.00;99.90
18047;DHT22;9148;51.454;13.862;2023-04-15T04:03:12;9.00;99.90
18047;DHT22;9148;51.454;13.862;2023-04-15T04:05:38;9.00;99.90
18047;DHT22;9148;51.454;13.862;2023-04-15T04:08:05;9.00;99.90
18047;DHT22;9148;51.454;13.862;2023-04-15T04:10:31;9.10;99.90
18047;DHT22;9148;51.454;13.862;2023-04-15T04:12:57;9.10;99.90
18047;DHT22;9148;51.454;13.862;2023-04-15T04:15:22;9.10;99.90
18047;DHT22;9148;51.454;13.862;2023-04-15T04:17:48;9.10;99.90
18047;DHT22;9148;51.454;13.862;2023-04-15T04:20:14;9.10;99.90
18047;DHT22;9148;51.454;13.862;2023-04-15T04:22:40;9.10;99.90
18047;DHT22;9148;51.454;13.862;2023-04-15T04:25:06;9.10;99.90
18047;DHT22;9148;51.454;13.862;2023-04-15T04:27:33;9.20;99.90
18047;DHT22;9148;51.454;13.862;2023-04-15T04:29:59;9.20;99.90
18047;DHT22;9148;51.454;13.862;2023-04-15T04:32:25;9.20;99.90
18047;DHT22;9148;51.454;13.862;2023-04-15T04:34:50;9.30;99.90
18047;DHT22;9148;51.454;13.862;2023-04-15T04:37:16;9.30;99.90
18047;DHT22;9148;51.454;13.862;2023-04-15T04:39:42;9.30;99.90
18047;DHT22;9148;51.454;13.862;2023-04-15T04:42:07;9.40;99.90
18047;DHT22;9148;51.454;13.862;2023-04-15T04:44:33;9.40;99.90
18047;DHT22;9148;51.454;13.862;2023-04-15T04:46:59;9.50;99.90
18047;DHT22;9148;51.454;13.862;2023-04-15T04:49:24;9.50;99.90
18047;DHT22;9148;51.454;13.862;2023-04-15T04:51:51;9.40;99.90
18047;DHT22;9148;51.454;13.862;2023-04-15T04:54:16;9.50;99.90
18047;DHT22;9148;51.454;13.862;2023-04-15T04:56:42;9.60;99.90
18047;DHT22;9148;51.454;13.862;2023-04-15T04:59:08;9.60;99.90
18047;DHT22;9148;51.454;13.862;2023-04-15T05:01:33;9.60;99.90
18047;DHT22;9148;51.454;13.862;2023-04-15T05:03:59;9.60;99.90
18047;DHT22;9148;51.454;13.862;2023-04-15T05:06:25;9.60;99.90
18047;DHT22;9148;51.454;13.862;2023-04-15T05:08:51;9.60;99.90
18047;DHT22;9148;51.454;13.862;2023-04-15T05:11:17;9.70;99.90
18047;DHT22;9148;51.454;13.862;2023-04-15T05:13:43;9.70;99.90
18047;DHT22;9148;51.454;13.862;2023-04-15T05:16:08;9.70;99.90
18047;DHT22;9148;51.454;13.862;2023-04-15T05:18:34;9.70;99.90
18047;DHT22;9148;51.454;13.862;2023-04-15T05:21:01;9.70;99.90
18047;DHT22;9148;51.454;13.862;2023-04-15T05:23:27;9.80;99.90
18047;DHT22;9148;51.454;13.862;2023-04-15T05:25:52;9.80;99.90
18047;DHT22;9148;51.454;13.862;2023-04-15T05:28:18;9.80;99.90
18047;DHT22;9148;51.454;13.862;2023-04-15T05:30:44;9.80;99.90
18047;DHT22;9148;51.454;13.862;2023-04-15T05:33:10;9.80;99.90
18047;DHT22;9148;51.454;13.862;2023-04-15T05:35:36;9.80;99.90
18047;DHT22;9148;51.454;13.862;2023-04-15T05:38:01;9.90;99.90
18047;DHT22;9148;51.454;13.862;2023-04-15T05:40:29;9.80;99.90
18047;DHT22;9148;51.454;13.862;2023-04-15T05:42:55;9.90;99.90
18047;DHT22;9148;51.454;13.862;2023-04-15T05:45:20;9.90;99.90
18047;DHT22;9148;51.454;13.862;2023-04-15T05:47:46;9.90;99.90
18047;DHT22;9148;51.454;13.862;2023-04-15T05:50:14;9.90;99.90
18047;DHT22;9148;51.454;13.862;2023-04-15T05:52:40;9.90;99.90
18047;DHT22;9148;51.454;13.862;2023-04-15T05:55:06;9.90;99.90
18047;DHT22;9148;51.454;13.862;2023-04-15T05:57:32;9.90;99.90
18047;DHT22;9148;51.454;13.862;2023-04-15T05:59:57;9.90;99.90
18047;DHT22;9148;51.454;13.862;2023-04-15T06:02:23;9.90;99.90
18047;DHT22;9148;51.454;13.862;2023-04-15T06:04:49;9.90;99.90
18047;DHT22;9148;51.454;13.862;2023-04-15T06:07:14;9.90;99.90
18047;DHT22;9148;51.454;13.862;2023-04-15T06:09:40;9.90;99.90
18047;DHT22;9148;51.454;13.862;2023-04-15T06:12:06;9.90;99.90
18047;DHT22;9148;51.454;13.862;2023-04-15T06:14:39;10.00;99.90
18047;DHT22;9148;51.454;13.862;2023-04-15T06:17:05;10.00;99.90
18047;DHT22;9148;51.454;13.862;2023-04-15T06:19:31;10.00;99.90
18047;DHT22;9148;51.454;13.862;2023-04-15T06:21:57;10.00;99.90
18047;DHT22;9148;51.454;13.862;2023-04-15T06:24:23;10.00;99.90
18047;DHT22;9148;51.454;13.862;2023-04-15T06:26:49;10.00;99.90
18047;DHT22;9148;51.454;13.862;2023-04-15T06:29:15;10.00;99.90
18047;DHT22;9148;51.454;13.862;2023-04-15T06:31:41;10.00;99.90
18047;DHT22;9148;51.454;13.862;2023-04-15T06:34:06;10.00;99.90
18047;DHT22;9148;51.454;13.862;2023-04-15T06:36:32;10.00;99.90
18047;DHT22;9148;51.454;13.862;2023-04-15T06:38:58;10.00;99.90
18047;DHT22;9148;51.454;13.862;2023-04-15T06:41:23;10.00;99.90
18047;DHT22;9148;51.454;13.862;2023-04-15T06:43:49;10.00;99.90
18047;DHT22;9148;51.454;13.862;2023-04-15T06:46:15;10.10;99.90
18047;DHT22;9148;51.454;13.862;2023-04-15T06:48:41;10.10;99.90
18047;DHT22;9148;51.454;13.862;2023-04-15T06:51:07;10.10;99.90
18047;DHT22;9148;51.454;13.862;2023-04-15T06:53:32;10.10;99.90
18047;DHT22;9148;51.454;13.862;2023-04-15T06:55:59;10.10;99.90
18047;DHT22;9148;51.454;13.862;2023-04-15T06:58:25;10.10;99.90
18047;DHT22;9148;51.454;13.862;2023-04-15T07:00:51;10.10;99.90
18047;DHT22;9148;51.454;13.862;2023-04-15T07:03:17;10.10;99.90
18047;DHT22;9148;51.454;13.862;2023-04-15T07:05:43;10.10;99.90
18047;DHT22;9148;51.454;13.862;2023-04-15T07:08:09;10.10;99.90
18047;DHT22;9148;51.454;13.862;2023-04-15T07:10:34;10.10;99.90
18047;DHT22;9148;51.454;13.862;2023-04-15T07:13:01;10.20;99.90
18047;DHT22;9148;51.454;13.862;2023-04-15T07:15:27;10.20;99.90
18047;DHT22;9148;51.454;13.862;2023-04-15T07:17:53;10.20;99.90
18047;DHT22;9148;51.454;13.862;2023-04-15T07:20:18;10.20;99.90
18047;DHT22;9148;51.454;13.862;2023-04-15T07:22:44;10.20;99.90
18047;DHT22;9148;51.454;13.862;2023-04-15T07:25:10;10.20;99.90
18047;DHT22;9148;51.454;13.862;2023-04-15T07:27:36;10.20;99.90
18047;DHT22;9148;51.454;13.862;2023-04-15T07:30:01;10.30;99.90
18047;DHT22;9148;51.454;13.862;2023-04-15T07:32:27;10.30;99.90
18047;DHT22;9148;51.454;13.862;2023-04-15T07:34:53;10.20;99.90
18047;DHT22;9148;51.454;13.862;2023-04-15T07:37:19;10.30;99.90
18047;DHT22;9148;51.454;13.862;2023-04-15T07:39:44;10.20;99.90
18047;DHT22;9148;51.454;13.862;2023-04-15T07:42:10;10.20;99.90
18047;DHT22;9148;51.454;13.862;2023-04-15T07:44:36;10.20;99.90
18047;DHT22;9148;51.454;13.862;2023-04-15T07:47:02;10.30;99.90
18047;DHT22;9148;51.454;13.862;2023-04-15T07:49:28;10.30;99.90
18047;DHT22;9148;51.454;13.862;2023-04-15T07:51:54;10.30;99.90
18047;DHT22;9148;51.454;13.862;2023-04-15T07:54:21;10.20;99.90
18047;DHT22;9148;51.454;13.862;2023-04-15T07:56:47;10.20;99.90
18047;DHT22;9148;51.454;13.862;2023-04-15T07:59:13;10.20;99.90
18047;DHT22;9148;51.454;13.862;2023-04-15T08:01:42;10.20;99.90
18047;DHT22;9148;51.454;13.862;2023-04-15T08:04:08;10.20;99.90
18047;DHT22;9148;51.454;13.862;2023-04-15T08:06:34;10.20;99.90
18047;DHT22;9148;51.454;13.862;2023-04-15T08:09:01;10.20;99.90
18047;DHT22;9148;51.454;13.862;2023-04-15T08:11:26;10.10;99.90
18047;DHT22;9148;51.454;13.862;2023-04-15T08:13:52;10.10;99.90
18047;DHT22;9148;51.454;13.862;2023-04-15T08:16:23;9.90;99.90
18047;DHT22;9148;51.454;13.862;2023-04-15T08:18:50;9.70;99.90
18047;DHT22;9148;51.454;13.862;2023-04-15T08:21:17;9.60;99.90
18047;DHT22;9148;51.454;13.862;2023-04-15T08:23:45;9.50;99.90
18047;DHT22;9148;51.454;13.862;2023-04-15T08:26:12;9.30;99.90
18047;DHT22;9148;51.454;13.862;2023-04-15T08:28:41;9.20;99.90
18047;DHT22;9148;51.454;13.862;2023-04-15T08:31:08;9.20;99.90
18047;DHT22;9148;51.454;13.862;2023-04-15T08:33:34;9.10;99.90
18047;DHT22;9148;51.454;13.862;2023-04-15T08:36:00;9.10;99.90
18047;DHT22;9148;51.454;13.862;2023-04-15T08:38:26;9.10;99.90
18047;DHT22;9148;51.454;13.862;2023-04-15T08:40:51;9.10;99.90
18047;DHT22;9148;51.454;13.862;2023-04-15T08:43:22;9.10;99.90
18047;DHT22;9148;51.454;13.862;2023-04-15T08:45:51;9.00;99.90
18047;DHT22;9148;51.454;13.862;2023-04-15T08:48:18;9.00;99.90
18047;DHT22;9148;51.454;13.862;2023-04-15T08:50:45;9.00;99.90
18047;DHT22;9148;51.454;13.862;2023-04-15T08:53:11;8.90;99.90
18047;DHT22;9148;51.454;13.862;2023-04-15T08:55:42;9.00;99.90
18047;DHT22;9148;51.454;13.862;2023-04-15T08:58:10;9.10;99.90
18047;DHT22;9148;51.454;13.862;2023-04-15T09:00:37;9.10;99.90
18047;DHT22;9148;51.454;13.862;2023-04-15T09:03:04;9.20;99.90
18047;DHT22;9148;51.454;13.862;2023-04-15T09:05:35;9.20;99.90
18047;DHT22;9148;51.454;13.862;2023-04-15T09:08:02;9.20;99.90
18047;DHT22;9148;51.454;13.862;2023-04-15T09:10:29;9.20;99.90
18047;DHT22;9148;51.454;13.862;2023-04-15T09:12:55;9.20;99.90
18047;DHT22;9148;51.454;13.862;2023-04-15T09:15:24;9.20;99.90
18047;DHT22;9148;51.454;13.862;2023-04-15T09:17:51;9.20;99.90
18047;DHT22;9148;51.454;13.862;2023-04-15T09:20:17;9.20;99.90
18047;DHT22;9148;51.454;13.862;2023-04-15T09:22:45;9.20;99.90
18047;DHT22;9148;51.454;13.862;2023-04-15T09:27:49;9.30;99.90
18047;DHT22;9148;51.454;13.862;2023-04-15T09:30:16;9.30;99.90
18047;DHT22;9148;51.454;13.862;2023-04-15T09:32:52;9.60;99.90
18047;DHT22;9148;51.454;13.862;2023-04-15T09:35:23;9.30;99.90
18047;DHT22;9148;51.454;13.862;2023-04-15T09:37:50;9.30;99.90
18047;DHT22;9148;51.454;13.862;2023-04-15T09:40:36;9.40;99.90
18047;DHT22;9148;51.454;13.862;2023-04-15T09:43:04;9.50;99.90
18047;DHT22;9148;51.454;13.862;2023-04-15T09:45:31;9.40;99.90
18047;DHT22;9148;51.454;13.862;2023-04-15T09:47:59;9.50;99.90
18047;DHT22;9148;51.454;13.862;2023-04-15T09:50:41;9.50;99.90
18047;DHT22;9148;51.454;13.862;2023-04-15T09:53:15;9.50;99.90
18047;DHT22;9148;51.454;13.862;2023-04-15T09:58:21;9.50;99.90
18047;DHT22;9148;51.454;13.862;2023-04-15T10:00:53;9.70;99.90
18047;DHT22;9148;51.454;13.862;2023-04-15T10:03:23;9.50;99.90
18047;DHT22;9148;51.454;13.862;2023-04-15T10:05:57;9.60;99.90
18047;DHT22;9148;51.454;13.862;2023-04-15T10:08:27;9.60;99.90
18047;DHT22;9148;51.454;13.862;2023-04-15T10:10:54;9.60;99.90
18047;DHT22;9148;51.454;13.862;2023-04-15T10:13:22;9.80;99.90
18047;DHT22;9148;51.454;13.862;2023-04-15T10:15:57;9.70;99.90
18047;DHT22;9148;51.454;13.862;2023-04-15T10:18:26;9.80;99.90
18047;DHT22;9148;51.454;13.862;2023-04-15T10:20:53;9.80;99.90
18047;DHT22;9148;51.454;13.862;2023-04-15T10:23:21;9.80;99.90
18047;DHT22;9148;51.454;13.862;2023-04-15T10:25:49;9.90;99.90
18047;DHT22;9148;51.454;13.862;2023-04-15T10:28:16;9.90;99.90
18047;DHT22;9148;51.454;13.862;2023-04-15T10:30:42;9.80;99.90
18047;DHT22;9148;51.454;13.862;2023-04-15T10:33:09;9.60;99.90
18047;DHT22;9148;51.454;13.862;2023-04-15T10:35:35;9.50;99.90
18047;DHT22;9148;51.454;13.862;2023-04-15T10:38:01;9.40;99.90
18047;DHT22;9148;51.454;13.862;2023-04-15T10:40:29;9.20;99.90
18047;DHT22;9148;51.454;13.862;2023-04-15T10:42:57;9.10;99.90
18047;DHT22;9148;51.454;13.862;2023-04-15T10:45:31;9.10;99.90
18047;DHT22;9148;51.454;13.862;2023-04-15T10:48:01;9.10;99.90
18047;DHT22;9148;51.454;13.862;2023-04-15T10:50:30;9.10;99.90
18047;DHT22;9148;51.454;13.862;2023-04-15T10:52:57;9.10;99.90
18047;DHT22;9148;51.454;13.862;2023-04-15T10:55:25;9.10;99.90
18047;DHT22;9148;51.454;13.862;2023-04-15T10:57:58;9.10;99.90
18047;DHT22;9148;51.454;13.862;2023-04-15T11:00:31;9.20;99.90
18047;DHT22;9148;51.454;13.862;2023-04-15T11:02:58;9.20;99.90
18047;DHT22;9148;51.454;13.862;2023-04-15T11:08:06;9.20;99.90
18047;DHT22;9148;51.454;13.862;2023-04-15T11:13:01;9.30;99.90
18047;DHT22;9148;51.454;13.862;2023-04-15T11:15:32;9.30;99.90
18047;DHT22;9148;51.454;13.862;2023-04-15T11:18:11;9.30;99.90
18047;DHT22;9148;51.454;13.862;2023-04-15T11:20:39;9.30;99.90
18047;DHT22;9148;51.454;13.862;2023-04-15T11:23:07;9.40;99.90
18047;DHT22;9148;51.454;13.862;2023-04-15T11:25:34;9.40;99.90
18047;DHT22;9148;51.454;13.862;2023-04-15T11:28:02;9.40;99.90
18047;DHT22;9148;51.454;13.862;2023-04-15T11:30:34;9.40;99.90
18047;DHT22;9148;51.454;13.862;2023-04-15T11:33:03;9.40;99.90
18047;DHT22;9148;51.454;13.862;2023-04-15T11:35:34;9.50;99.90
18047;DHT22;9148;51.454;13.862;2023-04-15T11:38:04;9.50;99.90
18047;DHT22;9148;51.454;13.862;2023-04-15T11:40:31;9.50;99.90
18047;DHT22;9148;51.454;13.862;2023-04-15T11:43:10;9.50;99.90
18047;DHT22;9148;51.454;13.862;2023-04-15T11:45:47;9.60;99.90
18047;DHT22;9148;51.454;13.862;2023-04-15T11:48:14;9.70;99.90
18047;DHT22;9148;51.454;13.862;2023-04-15T11:50:40;9.70;99.90
18047;DHT22;9148;51.454;13.862;2023-04-15T11:53:07;9.80;99.90
18047;DHT22;9148;51.454;13.862;2023-04-15T11:55:48;9.90;99.90
18047;DHT22;9148;51.454;13.862;2023-04-15T11:58:22;10.00;99.90
18047;DHT22;9148;51.454;13.862;2023-04-15T12:00:50;10.10;99.90
18047;DHT22;9148;51.454;13.862;2023-04-15T12:03:20;10.10;99.90
18047;DHT22;9148;51.454;13.862;2023-04-15T12:06:09;10.20;99.90
18047;DHT22;9148;51.454;13.862;2023-04-15T12:08:55;10.30;99.90
18047;DHT22;9148;51.454;13.862;2023-04-15T12:14:05;10.50;99.90
18047;DHT22;9148;51.454;13.862;2023-04-15T12:16:34;10.50;99.90
18047;DHT22;9148;51.454;13.862;2023-04-15T12:19:04;10.60;99.90
18047;DHT22;9148;51.454;13.862;2023-04-15T12:21:34;10.60;99.90
18047;DHT22;9148;51.454;13.862;2023-04-15T12:24:03;10.50;99.90
18047;DHT22;9148;51.454;13.862;2023-04-15T12:26:40;10.50;99.90
18047;DHT22;9148;51.454;13.862;2023-04-15T12:29:17;10.60;99.90
18047;DHT22;9148;51.454;13.862;2023-04-15T12:31:57;10.60;99.90
18047;DHT22;9148;51.454;13.862;2023-04-15T12:34:31;10.60;99.90
18047;DHT22;9148;51.454;13.862;2023-04-15T12:37:00;10.60;99.90
18047;DHT22;9148;51.454;13.862;2023-04-15T12:39:28;10.70;99.90
18047;DHT22;9148;51.454;13.862;2023-04-15T12:41:57;10.70;99.90
18047;DHT22;9148;51.454;13.862;2023-04-15T12:44:24;10.70;99.90
18047;DHT22;9148;51.454;13.862;2023-04-15T12:46:51;10.70;99.90
18047;DHT22;9148;51.454;13.862;2023-04-15T12:49:20;10.70;99.90
18047;DHT22;9148;51.454;13.862;2023-04-15T12:51:51;10.80;99.90
18047;DHT22;9148;51.454;13.862;2023-04-15T12:54:18;10.80;99.90
18047;DHT22;9148;51.454;13.862;2023-04-15T12:56:46;10.90;99.90
18047;DHT22;9148;51.454;13.862;2023-04-15T12:59:13;10.90;99.90
18047;DHT22;9148;51.454;13.862;2023-04-15T13:01:39;10.90;99.90
18047;DHT22;9148;51.454;13.862;2023-04-15T13:04:05;11.00;99.90
18047;DHT22;9148;51.454;13.862;2023-04-15T13:06:31;11.00;99.90
18047;DHT22;9148;51.454;13.862;2023-04-15T13:09:01;11.10;99.90
18047;DHT22;9148;51.454;13.862;2023-04-15T13:11:28;11.10;99.90
18047;DHT22;9148;51.454;13.862;2023-04-15T13:13:59;11.10;99.90
18047;DHT22;9148;51.454;13.862;2023-04-15T13:16:25;11.20;99.90
18047;DHT22;9148;51.454;13.862;2023-04-15T13:18:51;11.20;99.90
18047;DHT22;9148;51.454;13.862;2023-04-15T13:21:17;11.30;99.90
18047;DHT22;9148;51.454;13.862;2023-04-15T13:23:43;11.30;99.90
18047;DHT22;9148;51.454;13.862;2023-04-15T13:26:09;11.20;99.90
18047;DHT22;9148;51.454;13.862;2023-04-15T13:28:35;11.30;99.90
18047;DHT22;9148;51.454;13.862;2023-04-15T13:31:01;11.30;99.90
18047;DHT22;9148;51.454;13.862;2023-04-15T13:33:27;11.40;99.90
18047;DHT22;9148;51.454;13.862;2023-04-15T13:35:52;11.50;99.90
18047;DHT22;9148;51.454;13.862;2023-04-15T13:38:19;11.60;99.90
18047;DHT22;9148;51.454;13.862;2023-04-15T13:40:45;11.80;99.90
18047;DHT22;9148;51.454;13.862;2023-04-15T13:43:11;11.90;99.90
18047;DHT22;9148;51.454;13.862;2023-04-15T13:45:36;12.00;99.90
18047;DHT22;9148;51.454;13.862;2023-04-15T13:48:03;12.20;99.90
18047;DHT22;9148;51.454;13.862;2023-04-15T13:50:28;12.30;99.90
18047;DHT22;9148;51.454;13.862;2023-04-15T13:52:54;12.30;99.90
18047;DHT22;9148;51.454;13.862;2023-04-15T13:55:20;12.40;99.90
18047;DHT22;9148;51.454;13.862;2023-04-15T13:57:46;12.40;99.90
18047;DHT22;9148;51.454;13.862;2023-04-15T14:00:12;12.40;99.90
18047;DHT22;9148;51.454;13.862;2023-04-15T14:02:39;12.40;99.90
18047;DHT22;9148;51.454;13.862;2023-04-15T14:05:04;12.40;99.90
18047;DHT22;9148;51.454;13.862;2023-04-15T14:07:30;12.40;99.90
18047;DHT22;9148;51.454;13.862;2023-04-15T14:09:56;12.40;99.90
18047;DHT22;9148;51.454;13.862;2023-04-15T14:12:22;12.40;99.90
18047;DHT22;9148;51.454;13.862;2023-04-15T14:14:47;12.50;99.90
18047;DHT22;9148;51.454;13.862;2023-04-15T14:17:13;12.50;99.90
18047;DHT22;9148;51.454;13.862;2023-04-15T14:19:39;12.60;99.90
18047;DHT22;9148;51.454;13.862;2023-04-15T14:22:04;12.70;99.90
18047;DHT22;9148;51.454;13.862;2023-04-15T14:24:30;12.70;99.90
18047;DHT22;9148;51.454;13.862;2023-04-15T14:26:57;12.70;99.90
18047;DHT22;9148;51.454;13.862;2023-04-15T14:29:23;12.80;99.90
18047;DHT22;9148;51.454;13.862;2023-04-15T14:31:49;12.80;99.90
18047;DHT22;9148;51.454;13.862;2023-04-15T14:34:15;12.80;99.90
18047;DHT22;9148;51.454;13.862;2023-04-15T14:36:42;12.80;99.90
18047;DHT22;9148;51.454;13.862;2023-04-15T14:39:08;12.90;99.90
18047;DHT22;9148;51.454;13.862;2023-04-15T14:41:34;13.00;99.90
18047;DHT22;9148;51.454;13.862;2023-04-15T14:44:00;13.10;99.90
18047;DHT22;9148;51.454;13.862;2023-04-15T14:46:26;13.30;99.90
18047;DHT22;9148;51.454;13.862;2023-04-15T14:48:51;13.50;99.90
18047;DHT22;9148;51.454;13.862;2023-04-15T14:51:17;13.50;99.90
18047;DHT22;9148;51.454;13.862;2023-04-15T14:53:44;13.60;99.90
18047;DHT22;9148;51.454;13.862;2023-04-15T14:56:10;13.60;99.90
18047;DHT22;9148;51.454;13.862;2023-04-15T14:58:36;13.60;99.90
18047;DHT22;9148;51.454;13.862;2023-04-15T15:01:02;13.60;99.90
18047;DHT22;9148;51.454;13.862;2023-04-15T15:03:29;13.50;99.90
18047;DHT22;9148;51.454;13.862;2023-04-15T15:05:55;13.40;99.90
18047;DHT22;9148;51.454;13.862;2023-04-15T15:08:22;13.40;99.90
18047;DHT22;9148;51.454;13.862;2023-04-15T15:10:47;13.30;99.90
18047;DHT22;9148;51.454;13.862;2023-04-15T15:13:13;13.30;99.90
18047;DHT22;9148;51.454;13.862;2023-04-15T15:15:39;13.40;99.90
18047;DHT22;9148;51.454;13.862;2023-04-15T15:18:05;13.50;99.90
18047;DHT22;9148;51.454;13.862;2023-04-15T15:20:31;13.50;99.90
18047;DHT22;9148;51.454;13.862;2023-04-15T15:22:57;13.60;99.90
18047;DHT22;9148;51.454;13.862;2023-04-15T15:25:23;13.50;99.90
18047;DHT22;9148;51.454;13.862;2023-04-15T15:27:49;13.60;99.90
18047;DHT22;9148;51.454;13.862;2023-04-15T15:30:15;13.60;99.90
18047;DHT22;9148;51.454;13.862;2023-04-15T15:32:41;13.60;99.90
18047;DHT22;9148;51.454;13.862;2023-04-15T15:35:07;13.60;99.90
18047;DHT22;9148;51.454;13.862;2023-04-15T15:37:34;13.60;99.90
18047;DHT22;9148;51.454;13.862;2023-04-15T15:40:03;13.70;99.90
18047;DHT22;9148;51.454;13.862;2023-04-15T15:42:30;13.60;99.90
18047;DHT22;9148;51.454;13.862;2023-04-15T15:44:56;13.60;99.90
18047;DHT22;9148;51.454;13.862;2023-04-15T15:47:22;13.60;99.90
18047;DHT22;9148;51.454;13.862;2023-04-15T15:49:48;13.50;99.90
18047;DHT22;9148;51.454;13.862;2023-04-15T15:52:14;13.30;99.90